sensor_id;sensor_type;location;lat;lon;timestamp;P1;durP1;ratioP1;P2;durP2;ratioP2
9310;SDS011;4694;52.464;13.480;2023-05-07T07:50:17;5.55;;;3.90;;
9310;SDS011;4694;52.464;13.480;2023-05-07T07:52:44;7.35;;;3.60;;
9310;SDS011;4694;52.464;13.480;2023-05-07T07:55:11;4.53;;;4.03;;
9310;SDS011;4694;52.464;13.480;2023-05-07T07:57:42;7.65;;;5.32;;
9310;SDS011;4694;52.464;13.480;2023-05-07T08:00:10;5.63;;;4.20;;
9310;SDS011;4694;52.464;13.480;2023-05-07T08:02:37;8.48;;;3.72;;
9310;SDS011;4694;52.464;13.480;2023-05-07T08:05:04;4.40;;;3.47;;
9310;SDS011;4694;52.464;13.480;2023-05-07T08:07:33;4.57;;;3.75;;
9310;SDS011;4694;52.464;13.480;2023-05-07T08:10:00;3.85;;;3.35;;
9310;SDS011;4694;52.464;13.480;2023-05-07T08:12:27;3.28;;;2.65;;
9310;SDS011;4694;52.464;13.480;2023-05-07T08:14:54;5.13;;;2.80;;
9310;SDS011;4694;52.464;13.480;2023-05-07T08:17:23;5.70;;;4.05;;
9310;SDS011;4694;52.464;13.480;2023-05-07T08:19:50;3.35;;;2.78;;
9310;SDS011;4694;52.464;13.480;2023-05-07T08:22:17;3.75;;;2.83;;
9310;SDS011;4694;52.464;13.480;2023-05-07T08:24:48;3.35;;;2.85;;
9310;SDS011;4694;52.464;13.480;2023-05-07T08:27:16;4.10;;;3.53;;
9310;SDS011;4694;52.464;13.480;2023-05-07T08:29:43;3.58;;;3.28;;
9310;SDS011;4694;52.464;13.480;2023-05-07T08:32:13;3.63;;;3.20;;
9310;SDS011;4694;52.464;13.480;2023-05-07T08:34:40;3.80;;;3.40;;
9310;SDS011;4694;52.464;13.480;2023-05-07T08:37:07;3.85;;;3.35;;
9310;SDS011;4694;52.464;13.480;2023-05-07T08:39:34;5.50;;;2.90;;
9310;SDS011;4694;52.464;13.480;2023-05-07T08:42:03;4.90;;;3.55;;
9310;SDS011;4694;52.464;13.480;2023-05-07T08:44:31;3.63;;;2.75;;
9310;SDS011;4694;52.464;13.480;2023-05-07T08:46:59;4.00;;;2.35;;
9310;SDS011;4694;52.464;13.480;2023-05-07T08:49:27;31.30;;;5.30;;
9310;SDS011;4694;52.464;13.480;2023-05-07T08:51:54;4.15;;;2.58;;
9310;SDS011;4694;52.464;13.480;2023-05-07T08:54:21;3.03;;;2.55;;
9310;SDS011;4694;52.464;13.480;2023-05-07T08:56:48;2.53;;;2.33;;
9310;SDS011;4694;52.464;13.480;2023-05-07T08:59:17;2.85;;;2.22;;
9310;SDS011;4694;52.464;13.480;2023-05-07T09:01:44;2.90;;;2.47;;
9310;SDS011;4694;52.464;13.480;2023-05-07T09:04:11;6.03;;;2.50;;
9310;SDS011;4694;52.464;13.480;2023-05-07T09:06:38;3.90;;;3.25;;
9310;SDS011;4694;52.464;13.480;2023-05-07T09:09:07;2.60;;;2.40;;
9310;SDS011;4694;52.464;13.480;2023-05-07T09:11:34;2.53;;;2.33;;
9310;SDS011;4694;52.464;13.480;2023-05-07T09:14:01;2.47;;;2.28;;
9310;SDS011;4694;52.464;13.480;2023-05-07T09:16:30;3.08;;;2.08;;
9310;SDS011;4694;52.464;13.480;2023-05-07T09:18:57;3.75;;;2.08;;
9310;SDS011;4694;52.464;13.480;2023-05-07T09:21:25;4.07;;;2.05;;
9310;SDS011;4694;52.464;13.480;2023-05-07T09:23:52;3.17;;;1.98;;
9310;SDS011;4694;52.464;13.480;2023-05-07T09:26:20;4.45;;;2.03;;
9310;SDS011;4694;52.464;13.480;2023-05-07T09:28:48;6.40;;;3.70;;
9310;SDS011;4694;52.464;13.480;2023-05-07T09:31:15;4.95;;;2.45;;
9310;SDS011;4694;52.464;13.480;2023-05-07T09:33:43;3.15;;;2.33;;
9310;SDS011;4694;52.464;13.480;2023-05-07T09:36:10;3.13;;;2.38;;
9310;SDS011;4694;52.464;13.480;2023-05-07T09:38:37;2.40;;;1.80;;
9310;SDS011;4694;52.464;13.480;2023-05-07T09:41:05;2.47;;;2.20;;
9310;SDS011;4694;52.464;13.480;2023-05-07T09:43:32;2.50;;;2.00;;
9310;SDS011;4694;52.464;13.480;2023-05-07T09:46:01;2.45;;;2.00;;
9310;SDS011;4694;52.464;13.480;2023-05-07T09:48:29;2.70;;;1.27;;
9310;SDS011;4694;52.464;13.480;2023-05-07T09:50:58;2.63;;;1.75;;
9310;SDS011;4694;52.464;13.480;2023-05-07T09:53:28;2.47;;;1.70;;
9310;SDS011;4694;52.464;13.480;2023-05-07T09:55:56;2.75;;;1.63;;
9310;SDS011;4694;52.464;13.480;2023-05-07T09:58:23;2.13;;;1.90;;
9310;SDS011;4694;52.464;13.480;2023-05-07T10:00:51;3.63;;;1.63;;
9310;SDS011;4694;52.464;13.480;2023-05-07T10:03:18;1.95;;;1.45;;
9310;SDS011;4694;52.464;13.480;2023-05-07T10:05:46;2.05;;;1.08;;
9310;SDS011;4694;52.464;13.480;2023-05-07T10:08:14;1.52;;;1.33;;
9310;SDS011;4694;52.464;13.480;2023-05-07T10:10:42;0.70;;;0.70;;
9310;SDS011;4694;52.464;13.480;2023-05-07T10:13:09;1.92;;;1.13;;
9310;SDS011;4694;52.464;13.480;2023-05-07T10:15:36;2.03;;;1.27;;
9310;SDS011;4694;52.464;13.480;2023-05-07T10:18:04;3.30;;;0.90;;
9310;SDS011;4694;52.464;13.480;2023-05-07T10:20:33;1.08;;;0.93;;
9310;SDS011;4694;52.464;13.480;2023-05-07T10:23:00;1.77;;;1.05;;
9310;SDS011;4694;52.464;13.480;2023-05-07T10:25:32;1.85;;;1.25;;
9310;SDS011;4694;52.464;13.480;2023-05-07T10:28:00;1.40;;;1.30;;
9310;SDS011;4694;52.464;13.480;2023-05-07T10:30:30;2.83;;;1.25;;
9310;SDS011;4694;52.464;13.480;2023-05-07T10:33:03;1.65;;;1.25;;
9310;SDS011;4694;52.464;13.480;2023-05-07T10:35:32;1.48;;;1.15;;
9310;SDS011;4694;52.464;13.480;2023-05-07T10:38:02;2.83;;;1.08;;
9310;SDS011;4694;52.464;13.480;2023-05-07T10:40:30;2.25;;;1.20;;
9310;SDS011;4694;52.464;13.480;2023-05-07T10:42:58;2.90;;;1.23;;
9310;SDS011;4694;52.464;13.480;2023-05-07T10:45:26;2.40;;;1.42;;
9310;SDS011;4694;52.464;13.480;2023-05-07T10:48:05;0.90;;;0.80;;
9310;SDS011;4694;52.464;13.480;2023-05-07T10:50:33;1.50;;;1.10;;
9310;SDS011;4694;52.464;13.480;2023-05-07T10:55:46;3.33;;;1.05;;
9310;SDS011;4694;52.464;13.480;2023-05-07T10:58:24;3.25;;;1.40;;
9310;SDS011;4694;52.464;13.480;2023-05-07T11:00:55;1.23;;;0.95;;
9310;SDS011;4694;52.464;13.480;2023-05-07T11:03:22;1.70;;;0.95;;
9310;SDS011;4694;52.464;13.480;2023-05-07T11:06:08;2.78;;;1.75;;
9310;SDS011;4694;52.464;13.480;2023-05-07T11:08:54;1.02;;;0.90;;
9310;SDS011;4694;52.464;13.480;2023-05-07T11:14:04;1.92;;;1.25;;
9310;SDS011;4694;52.464;13.480;2023-05-07T11:16:31;2.20;;;1.02;;
9310;SDS011;4694;52.464;13.480;2023-05-07T11:21:31;1.40;;;1.02;;
9310;SDS011;4694;52.464;13.480;2023-05-07T11:23:59;3.28;;;1.15;;
9310;SDS011;4694;52.464;13.480;2023-05-07T11:26:26;1.55;;;1.27;;
9310;SDS011;4694;52.464;13.480;2023-05-07T11:28:54;1.73;;;1.13;;
9310;SDS011;4694;52.464;13.480;2023-05-07T11:31:23;1.25;;;0.93;;
9310;SDS011;4694;52.464;13.480;2023-05-07T11:33:51;3.88;;;1.95;;
9310;SDS011;4694;52.464;13.480;2023-05-07T11:36:19;16.67;;;12.93;;
9310;SDS011;4694;52.464;13.480;2023-05-07T11:38:46;32.35;;;29.40;;
9310;SDS011;4694;52.464;13.480;2023-05-07T11:41:13;18.48;;;16.83;;
9310;SDS011;4694;52.464;13.480;2023-05-07T11:43:53;8.68;;;7.47;;
9310;SDS011;4694;52.464;13.480;2023-05-07T11:46:20;3.00;;;2.78;;
9310;SDS011;4694;52.464;13.480;2023-05-07T11:48:48;1.20;;;1.10;;
9310;SDS011;4694;52.464;13.480;2023-05-07T11:51:18;2.65;;;1.45;;
9310;SDS011;4694;52.464;13.480;2023-05-07T11:53:46;2.10;;;1.63;;
9310;SDS011;4694;52.464;13.480;2023-05-07T11:56:13;1.52;;;1.42;;
9310;SDS011;4694;52.464;13.480;2023-05-07T11:58:40;1.92;;;1.08;;
9310;SDS011;4694;52.464;13.480;2023-05-07T12:01:08;1.05;;;0.90;;
9310;SDS011;4694;52.464;13.480;2023-05-07T12:03:35;0.90;;;0.80;;
9310;SDS011;4694;52.464;13.480;2023-05-07T12:06:06;0.93;;;0.90;;
9310;SDS011;4694;52.464;13.480;2023-05-07T12:08:35;1.27;;;0.95;;
9310;SDS011;4694;52.464;13.480;2023-05-07T12:11:02;1.35;;;0.90;;
9310;SDS011;4694;52.464;13.480;2023-05-07T12:13:29;2.47;;;0.80;;
9310;SDS011;4694;52.464;13.480;2023-05-07T12:15:56;1.80;;;1.60;;
9310;SDS011;4694;52.464;13.480;2023-05-07T12:18:24;1.98;;;1.05;;
9310;SDS011;4694;52.464;13.480;2023-05-07T12:20:51;0.95;;;0.60;;
9310;SDS011;4694;52.464;13.480;2023-05-07T12:23:19;2.05;;;1.10;;
9310;SDS011;4694;52.464;13.480;2023-05-07T12:25:47;1.63;;;0.90;;
9310;SDS011;4694;52.464;13.480;2023-05-07T12:28:14;2.55;;;0.80;;
9310;SDS011;4694;52.464;13.480;2023-05-07T12:30:41;2.13;;;0.98;;
9310;SDS011;4694;52.464;13.480;2023-05-07T12:33:08;1.92;;;0.93;;
9310;SDS011;4694;52.464;13.480;2023-05-07T12:35:36;1.10;;;1.00;;
9310;SDS011;4694;52.464;13.480;2023-05-07T12:38:07;1.50;;;1.00;;
9310;SDS011;4694;52.464;13.480;2023-05-07T12:40:39;0.63;;;0.63;;
9310;SDS011;4694;52.464;13.480;2023-05-07T12:43:06;1.42;;;0.93;;
9310;SDS011;4694;52.464;13.480;2023-05-07T12:45:36;0.90;;;0.88;;
9310;SDS011;4694;52.464;13.480;2023-05-07T12:48:03;0.65;;;0.65;;
9310;SDS011;4694;52.464;13.480;2023-05-07T12:50:31;1.00;;;0.90;;
9310;SDS011;4694;52.464;13.480;2023-05-07T12:52:58;1.63;;;1.10;;
9310;SDS011;4694;52.464;13.480;2023-05-07T12:55:25;2.35;;;0.90;;
9310;SDS011;4694;52.464;13.480;2023-05-07T12:57:54;1.35;;;0.80;;
9310;SDS011;4694;52.464;13.480;2023-05-07T13:00:35;2.25;;;0.88;;
9310;SDS011;4694;52.464;13.480;2023-05-07T13:03:04;3.05;;;1.48;;
9310;SDS011;4694;52.464;13.480;2023-05-07T13:05:31;4.20;;;1.60;;
9310;SDS011;4694;52.464;13.480;2023-05-07T13:07:58;4.68;;;0.90;;
9310;SDS011;4694;52.464;13.480;2023-05-07T13:10:26;2.10;;;1.17;;
9310;SDS011;4694;52.464;13.480;2023-05-07T13:12:54;2.47;;;1.65;;
9310;SDS011;4694;52.464;13.480;2023-05-07T13:15:21;1.33;;;1.23;;
9310;SDS011;4694;52.464;13.480;2023-05-07T13:17:48;1.05;;;1.00;;
9310;SDS011;4694;52.464;13.480;2023-05-07T13:20:15;3.67;;;1.30;;
9310;SDS011;4694;52.464;13.480;2023-05-07T13:22:42;1.92;;;0.85;;
9310;SDS011;4694;52.464;13.480;2023-05-07T13:25:09;1.73;;;1.25;;
9310;SDS011;4694;52.464;13.480;2023-05-07T13:27:36;0.88;;;0.80;;
9310;SDS011;4694;52.464;13.480;2023-05-07T13:30:05;1.33;;;0.80;;
9310;SDS011;4694;52.464;13.480;2023-05-07T13:32:33;0.70;;;0.60;;
9310;SDS011;4694;52.464;13.480;2023-05-07T13:35:00;1.50;;;0.73;;
9310;SDS011;4694;52.464;13.480;2023-05-07T13:37:27;1.77;;;0.88;;
9310;SDS011;4694;52.464;13.480;2023-05-07T13:39:54;2.22;;;0.90;;
9310;SDS011;4694;52.464;13.480;2023-05-07T13:42:21;1.23;;;0.75;;
9310;SDS011;4694;52.464;13.480;2023-05-07T13:44:48;1.30;;;1.20;;
9310;SDS011;4694;52.464;13.480;2023-05-07T13:47:16;1.25;;;0.70;;
9310;SDS011;4694;52.464;13.480;2023-05-07T13:49:43;2.28;;;1.17;;
9310;SDS011;4694;52.464;13.480;2023-05-07T13:52:10;0.98;;;0.90;;
9310;SDS011;4694;52.464;13.480;2023-05-07T13:54:38;1.88;;;1.00;;
9310;SDS011;4694;52.464;13.480;2023-05-07T13:57:05;1.00;;;0.95;;
9310;SDS011;4694;52.464;13.480;2023-05-07T13:59:32;3.22;;;0.90;;
9310;SDS011;4694;52.464;13.480;2023-05-07T14:01:59;2.13;;;2.03;;
9310;SDS011;4694;52.464;13.480;2023-05-07T14:04:27;0.80;;;0.80;;
9310;SDS011;4694;52.464;13.480;2023-05-07T14:06:54;1.10;;;0.98;;
9310;SDS011;4694;52.464;13.480;2023-05-07T14:09:21;0.73;;;0.70;;
9310;SDS011;4694;52.464;13.480;2023-05-07T14:11:48;1.05;;;0.90;;
9310;SDS011;4694;52.464;13.480;2023-05-07T14:14:16;1.55;;;0.90;;
9310;SDS011;4694;52.464;13.480;2023-05-07T14:16:43;0.88;;;0.77;;
9310;SDS011;4694;52.464;13.480;2023-05-07T14:19:10;1.20;;;0.77;;
9310;SDS011;4694;52.464;13.480;2023-05-07T14:21:39;1.50;;;0.70;;
9310;SDS011;4694;52.464;13.480;2023-05-07T14:24:06;1.10;;;0.60;;
9310;SDS011;4694;52.464;13.480;2023-05-07T14:26:33;1.00;;;0.90;;
9310;SDS011;4694;52.464;13.480;2023-05-07T14:29:00;1.40;;;0.90;;
9310;SDS011;4694;52.464;13.480;2023-05-07T14:31:27;1.25;;;0.80;;
9310;SDS011;4694;52.464;13.480;2023-05-07T14:33:54;3.03;;;1.05;;
9310;SDS011;4694;52.464;13.480;2023-05-07T14:36:22;1.15;;;0.98;;
9310;SDS011;4694;52.464;13.480;2023-05-07T14:38:52;0.85;;;0.65;;
9310;SDS011;4694;52.464;13.480;2023-05-07T14:41:19;1.90;;;0.85;;
9310;SDS011;4694;52.464;13.480;2023-05-07T14:43:47;2.30;;;0.70;;
9310;SDS011;4694;52.464;13.480;2023-05-07T14:46:15;2.45;;;1.20;;
9310;SDS011;4694;52.464;13.480;2023-05-07T14:48:43;1.90;;;0.70;;
9310;SDS011;4694;52.464;13.480;2023-05-07T14:51:10;1.40;;;0.90;;
9310;SDS011;4694;52.464;13.480;2023-05-07T14:53:37;1.20;;;0.80;;
9310;SDS011;4694;52.464;13.480;2023-05-07T14:56:06;3.38;;;0.82;;
9310;SDS011;4694;52.464;13.480;2023-05-07T14:58:33;1.27;;;0.80;;
9310;SDS011;4694;52.464;13.480;2023-05-07T15:01:00;1.35;;;0.90;;
9310;SDS011;4694;52.464;13.480;2023-05-07T15:03:27;1.65;;;0.80;;
9310;SDS011;4694;52.464;13.480;2023-05-07T15:05:54;3.50;;;1.00;;
9310;SDS011;4694;52.464;13.480;2023-05-07T15:08:21;1.48;;;0.70;;
9310;SDS011;4694;52.464;13.480;2023-05-07T15:10:48;1.20;;;1.00;;
9310;SDS011;4694;52.464;13.480;2023-05-07T15:13:16;1.02;;;0.77;;
9310;SDS011;4694;52.464;13.480;2023-05-07T15:15:44;1.08;;;0.82;;
9310;SDS011;4694;52.464;13.480;2023-05-07T15:18:11;1.02;;;0.95;;
9310;SDS011;4694;52.464;13.480;2023-05-07T15:20:38;0.68;;;0.68;;
9310;SDS011;4694;52.464;13.480;2023-05-07T15:23:05;1.33;;;0.88;;
9310;SDS011;4694;52.464;13.480;2023-05-07T15:25:34;2.08;;;0.50;;
9310;SDS011;4694;52.464;13.480;2023-05-07T15:28:02;1.30;;;0.88;;
9310;SDS011;4694;52.464;13.480;2023-05-07T15:30:30;3.95;;;0.75;;
9310;SDS011;4694;52.464;13.480;2023-05-07T15:32:57;1.67;;;0.80;;
9310;SDS011;4694;52.464;13.480;2023-05-07T15:35:24;1.00;;;0.70;;
9310;SDS011;4694;52.464;13.480;2023-05-07T15:37:52;1.25;;;0.88;;
9310;SDS011;4694;52.464;13.480;2023-05-07T15:40:20;4.78;;;1.42;;
9310;SDS011;4694;52.464;13.480;2023-05-07T15:42:47;2.15;;;1.10;;
9310;SDS011;4694;52.464;13.480;2023-05-07T15:45:14;1.58;;;0.80;;
9310;SDS011;4694;52.464;13.480;2023-05-07T15:47:43;1.58;;;0.98;;
9310;SDS011;4694;52.464;13.480;2023-05-07T15:50:11;0.98;;;0.70;;
9310;SDS011;4694;52.464;13.480;2023-05-07T15:52:38;3.00;;;1.38;;
9310;SDS011;4694;52.464;13.480;2023-05-07T15:55:06;2.15;;;1.02;;
9310;SDS011;4694;52.464;13.480;2023-05-07T15:57:33;2.38;;;0.98;;
9310;SDS011;4694;52.464;13.480;2023-05-07T16:00:00;1.05;;;0.70;;
9310;SDS011;4694;52.464;13.480;2023-05-07T16:02:30;1.08;;;0.57;;
9310;SDS011;4694;52.464;13.480;2023-05-07T16:04:59;2.42;;;1.00;;
9310;SDS011;4694;52.464;13.480;2023-05-07T16:07:26;1.85;;;1.02;;
9310;SDS011;4694;52.464;13.480;2023-05-07T16:09:53;2.55;;;0.60;;
9310;SDS011;4694;52.464;13.480;2023-05-07T16:12:20;1.77;;;0.90;;
9310;SDS011;4694;52.464;13.480;2023-05-07T16:14:47;1.00;;;0.90;;
9310;SDS011;4694;52.464;13.480;2023-05-07T16:17:15;3.95;;;0.82;;
9310;SDS011;4694;52.464;13.480;2023-05-07T16:19:42;0.98;;;0.80;;
9310;SDS011;4694;52.464;13.480;2023-05-07T16:22:11;1.55;;;1.45;;
9310;SDS011;4694;52.464;13.480;2023-05-07T16:24:38;2.30;;;1.30;;
9310;SDS011;4694;52.464;13.480;2023-05-07T16:27:05;1.50;;;1.33;;
9310;SDS011;4694;52.464;13.480;2023-05-07T16:29:32;1.52;;;0.82;;
9310;SDS011;4694;52.464;13.480;2023-05-07T16:31:59;1.45;;;1.35;;
9310;SDS011;4694;52.464;13.480;2023-05-07T16:34:26;1.90;;;0.90;;
9310;SDS011;4694;52.464;13.480;2023-05-07T16:36:53;1.20;;;0.95;;
9310;SDS011;4694;52.464;13.480;2023-05-07T16:39:22;3.17;;;1.10;;
9310;SDS011;4694;52.464;13.480;2023-05-07T16:41:49;2.83;;;0.80;;
9310;SDS011;4694;52.464;13.480;2023-05-07T16:44:16;1.23;;;0.80;;
9310;SDS011;4694;52.464;13.480;2023-05-07T16:46:43;1.90;;;1.45;;
9310;SDS011;4694;52.464;13.480;2023-05-07T16:49:10;1.45;;;0.98;;
9310;SDS011;4694;52.464;13.480;2023-05-07T16:51:37;1.10;;;0.82;;
9310;SDS011;4694;52.464;13.480;2023-05-07T16:54:07;1.10;;;0.80;;
9310;SDS011;4694;52.464;13.480;2023-05-07T16:56:35;1.83;;;1.23;;
9310;SDS011;4694;52.464;13.480;2023-05-07T16:59:02;3.42;;;1.33;;
9310;SDS011;4694;52.464;13.480;2023-05-07T17:01:31;1.52;;;0.80;;
9310;SDS011;4694;52.464;13.480;2023-05-07T17:03:58;1.38;;;1.23;;
9310;SDS011;4694;52.464;13.480;2023-05-07T17:06:25;2.45;;;1.30;;
9310;SDS011;4694;52.464;13.480;2023-05-07T17:08:52;1.92;;;1.00;;
9310;SDS011;4694;52.464;13.480;2023-05-07T17:11:19;2.70;;;0.80;;
9310;SDS011;4694;52.464;13.480;2023-05-07T17:13:47;2.70;;;0.98;;
9310;SDS011;4694;52.464;13.480;2023-05-07T17:16:15;1.40;;;0.90;;
9310;SDS011;4694;52.464;13.480;2023-05-07T17:18:42;4.65;;;0.77;;
9310;SDS011;4694;52.464;13.480;2023-05-07T17:21:09;2.38;;;0.95;;
9310;SDS011;4694;52.464;13.480;2023-05-07T17:23:36;3.22;;;0.70;;
9310;SDS011;4694;52.464;13.480;2023-05-07T17:26:07;1.88;;;0.95;;
9310;SDS011;4694;52.464;13.480;2023-05-07T17:28:36;1.80;;;0.95;;
9310;SDS011;4694;52.464;13.480;2023-05-07T17:31:05;1.10;;;0.70;;
9310;SDS011;4694;52.464;13.480;2023-05-07T17:33:32;3.22;;;1.38;;
9310;SDS011;4694;52.464;13.480;2023-05-07T17:35:58;6.30;;;1.40;;
9310;SDS011;4694;52.464;13.480;2023-05-07T17:38:27;2.28;;;1.23;;
9310;SDS011;4694;52.464;13.480;2023-05-07T17:40:54;2.42;;;1.88;;
9310;SDS011;4694;52.464;13.480;2023-05-07T17:43:21;1.13;;;1.00;;
9310;SDS011;4694;52.464;13.480;2023-05-07T17:45:48;4.60;;;1.27;;
9310;SDS011;4694;52.464;13.480;2023-05-07T17:48:17;1.13;;;0.90;;
9310;SDS011;4694;52.464;13.480;2023-05-07T17:50:44;1.95;;;0.70;;
9310;SDS011;4694;52.464;13.480;2023-05-07T17:53:11;1.27;;;0.80;;
9310;SDS011;4694;52.464;13.480;2023-05-07T17:55:40;1.08;;;0.93;;
9310;SDS011;4694;52.464;13.480;2023-05-07T17:58:07;1.40;;;1.00;;
9310;SDS011;4694;52.464;13.480;2023-05-07T18:00:34;1.27;;;0.98;;
9310;SDS011;4694;52.464;13.480;2023-05-07T18:03:02;1.92;;;0.93;;
9310;SDS011;4694;52.464;13.480;2023-05-07T18:05:30;1.55;;;0.98;;
9310;SDS011;4694;52.464;13.480;2023-05-07T18:07:57;1.35;;;0.82;;
9310;SDS011;4694;52.464;13.480;2023-05-07T18:10:24;1.40;;;1.10;;
9310;SDS011;4694;52.464;13.480;2023-05-07T18:12:51;0.93;;;0.80;;
9310;SDS011;4694;52.464;13.480;2023-05-07T18:15:18;1.92;;;0.77;;
9310;SDS011;4694;52.464;13.480;2023-05-07T18:17:45;2.15;;;0.90;;
